Time;durP1;ratioP1;P1;durP2;ratioP2;P2;SDS_P1;SDS_P2;PMS_P1;PMS_P2;Temp;Humidity;BMP_temperature;BMP_pressure;BME280_temperature;BME280_humidity;BME280_pressure;Samples;Min_cycle;Max_cycle;Signal;HPM_P1;HPM_P2
2022/12/30 00:00:56;;;;;;;48.90;35.08;;;7.20;99.90;;;;;;5093447;28;20181;-60
2022/12/30 00:03:21;;;;;;;40.90;28.42;;;7.20;99.90;;;;;;5093426;28;20537;-64
2022/12/30 00:05:47;;;;;;;36.63;27.02;;;7.20;99.90;;;;;;5093463;28;20020;-62
2022/12/30 00:10:57;;;;;;;38.65;25.38;;;7.20;99.90;;;;;;5093288;28;20035;-61
2022/12/30 00:33:08;;;;;;;41.33;29.95;;;7.00;99.90;;;;;;5096870;28;20028;-63
2022/12/30 00:35:39;;;;;;;34.47;25.60;;;7.00;99.90;;;;;;5097231;28;20016;-60
2022/12/30 00:38:05;;;;;;;43.00;29.48;;;6.90;99.90;;;;;;5097290;28;20098;-61
2022/12/30 00:40:31;;;;;;;33.50;24.38;;;6.90;99.90;;;;;;5097064;28;20024;-62
2022/12/30 00:43:09;;;;;;;39.13;27.60;;;6.90;99.90;;;;;;5097364;28;20091;-61
2022/12/30 00:45:40;;;;;;;32.40;23.30;;;6.90;99.90;;;;;;5097142;28;20028;-65
2022/12/30 00:56:21;;;;;;;30.13;23.38;;;6.90;99.90;;;;;;5097115;28;20036;-61
2022/12/30 00:58:47;;;;;;;37.95;26.75;;;6.90;99.90;;;;;;5096636;28;20044;-61
2022/12/30 01:01:12;;;;;;;32.38;23.83;;;6.80;99.90;;;;;;5096851;28;20024;-63
2022/12/30 01:03:38;;;;;;;31.40;21.98;;;6.90;99.90;;;;;;5096720;28;20016;-61
2022/12/30 01:06:08;;;;;;;31.25;20.88;;;6.90;99.90;;;;;;5096668;28;20047;-60
2022/12/30 01:08:34;;;;;;;25.33;18.75;;;6.90;99.90;;;;;;5096723;28;20069;-64
2022/12/30 01:11:07;;;;;;;28.48;19.67;;;6.90;99.90;;;;;;5078247;28;20409;-63
2022/12/30 01:13:33;;;;;;;25.40;17.85;;;6.80;99.90;;;;;;5096567;28;20176;-61
2022/12/30 01:16:10;;;;;;;34.00;23.30;;;6.80;99.90;;;;;;5096550;28;20432;-62
2022/12/30 01:18:36;;;;;;;26.50;18.55;;;6.80;99.90;;;;;;5078249;28;20024;-60
2022/12/30 01:21:03;;;;;;;22.02;16.83;;;6.80;99.90;;;;;;5096597;28;20028;-62
2022/12/30 01:23:29;;;;;;;22.27;16.35;;;6.80;99.90;;;;;;5096284;28;20028;-60
2022/12/30 01:25:55;;;;;;;22.42;16.00;;;6.90;99.90;;;;;;5096400;28;20034;-62
2022/12/30 01:28:20;;;;;;;19.50;13.90;;;6.90;99.90;;;;;;5096288;28;20096;-61
2022/12/30 01:30:46;;;;;;;20.20;15.05;;;6.90;99.90;;;;;;5096310;28;20057;-61
2022/12/30 01:33:12;;;;;;;19.95;15.32;;;6.90;99.90;;;;;;5096208;28;20023;-61
2022/12/30 01:35:37;;;;;;;20.88;15.50;;;6.90;99.90;;;;;;5096110;28;20024;-64
2022/12/30 01:38:03;;;;;;;31.35;22.50;;;6.90;99.90;;;;;;5078262;28;20020;-62
2022/12/30 01:40:29;;;;;;;26.67;20.17;;;6.80;99.90;;;;;;5096328;28;20428;-61
2022/12/30 01:42:54;;;;;;;28.30;18.98;;;6.70;99.90;;;;;;5095296;28;20024;-64
2022/12/30 01:45:26;;;;;;;26.67;21.15;;;6.70;99.90;;;;;;5095816;28;20062;-64
2022/12/30 01:48:27;;;;;;;25.27;17.77;;;6.70;99.90;;;;;;5095953;28;20016;-64
2022/12/30 01:50:55;;;;;;;21.98;15.85;;;6.70;99.90;;;;;;5095825;28;20469;-63
2022/12/30 01:53:27;;;;;;;23.73;17.27;;;6.70;99.90;;;;;;5095834;28;20035;-64
2022/12/30 01:55:55;;;;;;;23.92;16.33;;;6.80;99.90;;;;;;5077679;28;20116;-64
2022/12/30 01:58:30;;;;;;;23.77;17.52;;;6.70;99.90;;;;;;5095591;28;20051;-64
2022/12/30 02:00:56;;;;;;;23.90;16.35;;;6.80;99.90;;;;;;5095612;28;20027;-61
2022/12/30 02:03:26;;;;;;;19.70;14.82;;;6.70;99.90;;;;;;5095598;28;20031;-62
2022/12/30 02:05:52;;;;;;;24.35;17.67;;;6.70;99.90;;;;;;5095667;28;20016;-61
2022/12/30 02:08:20;;;;;;;24.55;18.20;;;6.70;99.90;;;;;;5095254;28;20382;-64
2022/12/30 02:10:51;;;;;;;26.55;17.95;;;6.60;99.90;;;;;;5095445;28;20363;-61
2022/12/30 02:13:18;;;;;;;19.80;15.00;;;6.50;99.90;;;;;;5095494;28;20020;-64
2022/12/30 02:16:03;;;;;;;25.20;16.92;;;6.50;99.90;;;;;;5077183;28;20431;-61
2022/12/30 02:18:50;;;;;;;22.95;16.38;;;6.40;99.90;;;;;;5095429;28;20031;-62
2022/12/30 02:21:37;;;;;;;19.77;14.50;;;6.40;99.90;;;;;;5095228;28;20156;-63
2022/12/30 02:24:31;;;;;;;19.33;13.45;;;6.50;99.90;;;;;;5095143;28;20024;-63
2022/12/30 02:27:18;;;;;;;17.95;13.27;;;6.50;99.90;;;;;;5095197;28;20046;-61
2022/12/30 02:29:56;;;;;;;23.02;15.32;;;6.50;99.90;;;;;;5095015;28;20424;-64
2022/12/30 02:32:30;;;;;;;20.83;15.00;;;6.50;99.90;;;;;;5094979;28;20026;-63
2022/12/30 02:35:11;;;;;;;22.83;16.50;;;6.40;99.90;;;;;;5095008;28;20023;-63
2022/12/30 02:37:51;;;;;;;24.63;17.67;;;6.40;99.90;;;;;;5094701;28;20016;-63
2022/12/30 02:44:36;;;;;;;23.00;16.60;;;6.30;99.90;;;;;;5095000;28;20099;-63
2022/12/30 02:46:08;;;;;;;24.83;17.83;;;6.30;99.90;;;;;;5094765;28;20054;-62
2022/12/30 02:48:36;;;;;;;21.70;14.95;;;6.30;99.90;;;;;;5094810;28;20034;-64
2022/12/30 02:53:48;;;;;;;18.08;13.52;;;6.30;99.90;;;;;;5094857;28;20026;-61
2022/12/30 02:56:14;;;;;;;17.73;12.48;;;6.30;99.90;;;;;;5094694;28;20096;-62
2022/12/30 02:58:47;;;;;;;16.63;12.00;;;6.30;99.90;;;;;;5094353;28;20415;-63
2022/12/30 03:04:42;;;;;;;19.15;13.85;;;6.30;99.90;;;;;;5094457;28;20039;-61
2022/12/30 03:07:21;;;;;;;16.15;11.55;;;6.30;99.90;;;;;;5075984;28;20035;-63
2022/12/30 03:13:18;;;;;;;19.55;14.27;;;6.20;99.90;;;;;;5094358;28;20428;-63
2022/12/30 03:16:19;;;;;;;14.00;10.40;;;6.30;99.90;;;;;;5094235;28;20024;-61
2022/12/30 03:18:48;;;;;;;15.55;10.50;;;6.20;99.90;;;;;;5055920;28;20383;-61
2022/12/30 03:21:17;;;;;;;16.08;11.20;;;6.20;99.90;;;;;;5094014;28;20024;-62
2022/12/30 03:29:28;;;;;;;19.75;12.88;;;6.20;99.90;;;;;;5094150;28;20111;-63
2022/12/30 03:31:54;;;;;;;14.73;10.75;;;6.20;99.90;;;;;;5093970;28;20043;-62
2022/12/30 03:34:21;;;;;;;13.93;10.20;;;6.20;99.90;;;;;;5093812;28;20063;-62
2022/12/30 03:36:51;;;;;;;21.70;15.90;;;6.20;99.90;;;;;;5093880;28;20020;-65
2022/12/30 03:39:26;;;;;;;23.30;15.60;;;6.20;99.90;;;;;;5093988;28;20447;-63
2022/12/30 03:41:52;;;;;;;18.13;13.02;;;6.00;99.90;;;;;;5093757;28;20035;-62
2022/12/30 03:44:19;;;;;;;14.63;10.27;;;5.90;99.90;;;;;;5094084;28;20016;-64
2022/12/30 03:46:45;;;;;;;15.13;10.82;;;5.90;99.90;;;;;;5093772;28;20024;-64
2022/12/30 03:49:12;;;;;;;13.27;9.82;;;6.00;99.90;;;;;;5093400;28;20526;-60
2022/12/30 03:51:37;;;;;;;12.13;9.13;;;6.10;99.90;;;;;;5093701;28;20024;-62
2022/12/30 03:54:03;;;;;;;14.93;11.00;;;6.10;99.90;;;;;;5093623;28;20023;-63
2022/12/30 03:56:29;;;;;;;10.50;8.40;;;6.00;99.90;;;;;;5093505;28;20103;-62
2022/12/30 03:58:55;;;;;;;13.05;8.85;;;6.00;99.90;;;;;;5093435;28;20452;-60
2022/12/30 04:01:20;;;;;;;13.43;9.73;;;6.00;99.90;;;;;;5093609;28;20028;-63
2022/12/30 04:03:46;;;;;;;14.88;10.35;;;6.00;99.90;;;;;;5093291;28;20092;-61
2022/12/30 04:06:12;;;;;;;12.88;8.95;;;6.00;99.90;;;;;;5092910;28;20356;-62
2022/12/30 04:08:38;;;;;;;13.10;9.57;;;6.10;99.90;;;;;;5093548;28;20020;-63
2022/12/30 04:11:04;;;;;;;11.98;8.98;;;6.10;99.90;;;;;;5093610;28;20024;-59
2022/12/30 04:13:30;;;;;;;11.77;8.55;;;6.10;99.90;;;;;;5093293;28;20024;-64
2022/12/30 04:15:56;;;;;;;16.83;12.45;;;6.10;99.90;;;;;;5075239;28;20030;-61
2022/12/30 04:18:22;;;;;;;11.25;8.45;;;6.10;99.90;;;;;;5093208;28;20027;-62
2022/12/30 04:20:48;;;;;;;16.80;12.63;;;6.00;99.90;;;;;;5093225;28;20024;-62
2022/12/30 04:23:15;;;;;;;13.20;9.55;;;6.10;99.90;;;;;;5093347;28;20478;-63
2022/12/30 04:25:40;;;;;;;16.83;10.25;;;6.00;99.90;;;;;;5093366;28;20031;-63
2022/12/30 04:28:06;;;;;;;14.57;10.88;;;6.10;99.90;;;;;;5093186;28;20016;-61
2022/12/30 04:30:33;;;;;;;12.65;9.77;;;6.10;99.90;;;;;;5093184;28;20063;-63
2022/12/30 04:32:59;;;;;;;15.32;11.52;;;6.00;99.90;;;;;;5093145;28;20016;-62
2022/12/30 04:35:25;;;;;;;16.35;10.93;;;5.90;99.90;;;;;;5093475;28;20550;-61
2022/12/30 04:37:50;;;;;;;17.23;11.60;;;5.90;99.90;;;;;;5075023;28;20089;-61
2022/12/30 04:40:16;;;;;;;19.40;14.25;;;5.90;99.90;;;;;;5093194;28;20020;-64
2022/12/30 04:42:43;;;;;;;18.13;13.55;;;5.90;99.90;;;;;;5093139;28;20020;-62
2022/12/30 04:45:10;;;;;;;17.70;12.43;;;5.90;99.90;;;;;;5093012;28;20106;-62
2022/12/30 04:47:36;;;;;;;17.55;12.25;;;5.90;99.90;;;;;;5093006;28;20020;-63
2022/12/30 04:50:01;;;;;;;15.35;11.65;;;6.00;99.90;;;;;;5093085;28;20024;-60
2022/12/30 04:52:27;;;;;;;20.17;13.35;;;6.00;99.90;;;;;;5092909;28;20141;-61
2022/12/30 04:54:53;;;;;;;15.70;11.85;;;5.90;99.90;;;;;;5093054;28;20020;-64
2022/12/30 04:57:19;;;;;;;22.27;14.68;;;5.90;99.90;;;;;;5092789;28;20024;-63
2022/12/30 04:59:44;;;;;;;24.45;15.50;;;5.90;99.90;;;;;;5092959;28;20151;-61
2022/12/30 05:02:10;;;;;;;19.92;13.05;;;5.90;99.90;;;;;;5092905;28;20024;-62
2022/12/30 05:04:36;;;;;;;23.45;14.50;;;5.80;99.90;;;;;;5092915;28;20074;-62
2022/12/30 05:07:02;;;;;;;21.77;13.45;;;5.80;99.90;;;;;;5092833;28;20077;-61
2022/12/30 05:09:28;;;;;;;16.63;11.07;;;5.70;99.90;;;;;;5092927;28;20020;-62
2022/12/30 05:11:54;;;;;;;19.13;13.20;;;5.80;99.90;;;;;;5093004;28;20024;-62
2022/12/30 05:14:19;;;;;;;16.85;11.07;;;5.80;99.90;;;;;;5092830;28;20028;-62
2022/12/30 05:16:45;;;;;;;17.55;11.15;;;5.80;99.90;;;;;;5092559;28;20021;-62
2022/12/30 05:19:11;;;;;;;15.05;10.35;;;5.80;99.90;;;;;;5094731;28;20055;-63
2022/12/30 05:21:37;;;;;;;17.48;10.20;;;5.80;99.90;;;;;;5096481;28;20024;-63
2022/12/30 05:26:47;;;;;;;16.98;11.85;;;5.90;99.90;;;;;;5096444;28;20078;-61
2022/12/30 05:29:13;;;;;;;15.27;10.48;;;5.80;99.90;;;;;;5096076;28;20036;-64
2022/12/30 05:31:39;;;;;;;13.45;9.10;;;5.80;99.90;;;;;;5096291;28;20059;-61
2022/12/30 05:34:04;;;;;;;15.38;10.27;;;5.90;99.90;;;;;;5096315;28;20047;-60
2022/12/30 05:36:30;;;;;;;24.92;13.52;;;5.90;99.90;;;;;;5096055;28;20016;-63
2022/12/30 05:38:56;;;;;;;16.77;10.43;;;5.90;99.90;;;;;;5096271;28;20095;-62
2022/12/30 05:41:21;;;;;;;17.98;10.90;;;5.80;99.90;;;;;;5077932;28;20028;-64
2022/12/30 05:43:48;;;;;;;14.00;9.45;;;5.90;99.90;;;;;;5096002;28;20020;-64
2022/12/30 05:46:14;;;;;;;15.95;10.52;;;5.90;99.90;;;;;;5095740;28;20016;-63
2022/12/30 05:48:40;;;;;;;22.65;14.50;;;5.90;99.90;;;;;;5095953;28;20097;-61
2022/12/30 05:51:06;;;;;;;18.65;12.00;;;5.90;99.90;;;;;;5095668;28;20158;-65
2022/12/30 05:53:31;;;;;;;20.42;12.68;;;5.90;99.90;;;;;;5095044;28;20039;-59
2022/12/30 05:55:58;;;;;;;25.27;15.88;;;5.90;99.90;;;;;;5095275;28;20496;-64
2022/12/30 05:58:25;;;;;;;20.35;13.85;;;5.90;99.90;;;;;;5094660;28;20513;-61
2022/12/30 06:00:51;;;;;;;26.73;17.67;;;5.90;99.90;;;;;;5095256;28;20174;-64
2022/12/30 06:03:17;;;;;;;33.90;21.27;;;5.90;99.90;;;;;;5095459;28;20095;-64
2022/12/30 06:05:42;;;;;;;54.97;32.40;;;5.80;99.90;;;;;;5093962;28;20027;-62
2022/12/30 06:08:09;;;;;;;31.73;18.83;;;5.90;99.90;;;;;;5094005;28;20390;-61
2022/12/30 06:10:35;;;;;;;30.17;19.52;;;5.90;99.90;;;;;;5094065;28;20032;-64
2022/12/30 06:13:01;;;;;;;37.55;21.67;;;5.90;99.90;;;;;;5093393;28;20393;-61
2022/12/30 06:15:27;;;;;;;37.88;22.73;;;5.90;99.90;;;;;;5092771;28;20022;-63
2022/12/30 06:17:52;;;;;;;44.05;26.73;;;6.00;99.90;;;;;;5093158;28;20475;-64
2022/12/30 06:20:18;;;;;;;38.85;25.33;;;6.00;99.90;;;;;;5093405;28;20024;-64
2022/12/30 06:22:44;;;;;;;36.60;23.20;;;5.90;99.90;;;;;;5093931;28;20035;-62
2022/12/30 06:25:10;;;;;;;35.15;22.77;;;5.90;99.90;;;;;;5094015;28;20031;-59
2022/12/30 06:27:36;;;;;;;32.42;20.95;;;5.90;99.90;;;;;;5094090;28;20078;-64
2022/12/30 06:30:03;;;;;;;36.22;22.20;;;5.80;99.90;;;;;;5093997;28;20016;-61
2022/12/30 06:32:29;;;;;;;41.15;26.45;;;5.80;99.90;;;;;;5094607;28;20020;-62
2022/12/30 06:34:54;;;;;;;36.95;24.23;;;5.90;99.90;;;;;;5094733;28;20216;-63
2022/12/30 06:37:20;;;;;;;34.67;22.05;;;5.90;99.90;;;;;;5076408;28;20401;-62
2022/12/30 06:39:46;;;;;;;31.42;20.80;;;5.90;99.90;;;;;;5094605;28;20167;-62
2022/12/30 06:42:11;;;;;;;35.45;23.70;;;5.90;99.90;;;;;;5094639;28;20020;-60
2022/12/30 06:44:37;;;;;;;35.53;23.23;;;5.90;99.90;;;;;;5094217;28;20024;-61
2022/12/30 06:47:03;;;;;;;32.75;22.95;;;5.90;99.90;;;;;;5076145;28;20517;-63
2022/12/30 06:49:28;;;;;;;29.27;19.90;;;6.00;99.90;;;;;;5094268;28;20024;-62
2022/12/30 06:51:54;;;;;;;26.42;18.55;;;6.10;99.90;;;;;;5076009;28;20462;-62
2022/12/30 06:54:20;;;;;;;31.63;21.52;;;6.10;99.90;;;;;;5093640;28;20160;-65
2022/12/30 06:56:45;;;;;;;32.50;21.42;;;6.20;99.90;;;;;;5093966;28;20031;-62
2022/12/30 06:59:11;;;;;;;35.00;23.25;;;6.30;99.90;;;;;;5093640;28;20050;-65
2022/12/30 07:01:37;;;;;;;42.50;29.15;;;6.40;99.90;;;;;;5094197;28;20027;-61
2022/12/30 07:04:03;;;;;;;38.75;25.60;;;6.40;99.90;;;;;;5092682;28;20016;-63
2022/12/30 07:06:28;;;;;;;40.22;26.88;;;6.40;99.90;;;;;;5094470;28;20017;-63
2022/12/30 07:08:54;;;;;;;33.20;23.00;;;6.50;99.90;;;;;;5094216;28;20024;-60
2022/12/30 07:11:21;;;;;;;31.05;22.85;;;6.60;99.90;;;;;;5092523;28;20103;-63
2022/12/30 07:13:46;;;;;;;29.42;20.75;;;6.70;99.90;;;;;;5087919;28;20476;-61
2022/12/30 07:16:12;;;;;;;26.92;18.67;;;6.80;99.90;;;;;;5072125;28;20024;-62
2022/12/30 07:18:38;;;;;;;31.98;23.63;;;6.90;99.90;;;;;;5090381;28;20434;-62
2022/12/30 07:21:04;;;;;;;30.63;22.10;;;7.00;99.90;;;;;;5091255;28;20030;-60
2022/12/30 07:23:29;;;;;;;35.50;25.15;;;7.00;99.90;;;;;;5091213;28;20031;-61
2022/12/30 07:25:55;;;;;;;38.60;29.30;;;7.10;99.90;;;;;;5093511;28;20028;-63
2022/12/30 07:28:21;;;;;;;41.13;30.05;;;7.10;99.90;;;;;;5093546;28;20020;-62
2022/12/30 07:30:46;;;;;;;41.38;28.70;;;7.10;99.90;;;;;;5091860;28;20036;-64
2022/12/30 07:33:12;;;;;;;37.70;27.92;;;7.20;99.90;;;;;;5092796;28;20016;-64
2022/12/30 07:35:38;;;;;;;36.22;26.63;;;7.40;99.90;;;;;;5092830;28;20466;-61
2022/12/30 07:38:04;;;;;;;34.05;24.38;;;7.50;99.90;;;;;;5092295;28;20538;-60
2022/12/30 07:40:30;;;;;;;33.60;25.55;;;7.60;99.90;;;;;;5072838;28;20110;-63
2022/12/30 07:42:56;;;;;;;30.83;23.73;;;7.60;99.90;;;;;;5091565;28;20024;-63
2022/12/30 07:45:22;;;;;;;39.92;30.23;;;7.70;99.90;;;;;;5091402;28;20212;-68
2022/12/30 07:47:48;;;;;;;35.35;27.38;;;7.80;99.90;;;;;;5072770;28;20023;-64
2022/12/30 07:50:13;;;;;;;44.67;32.80;;;7.90;99.90;;;;;;5088391;28;20020;-63
2022/12/30 07:52:39;;;;;;;49.85;36.30;;;7.80;99.90;;;;;;5090097;28;20480;-64
2022/12/30 07:55:06;;;;;;;39.50;31.02;;;7.80;99.90;;;;;;5089851;28;20482;-66
2022/12/30 07:57:32;;;;;;;37.45;28.42;;;7.80;99.90;;;;;;5088442;28;20043;-61
2022/12/30 07:59:57;;;;;;;33.13;27.05;;;7.90;99.90;;;;;;5087550;28;20028;-66
2022/12/30 08:02:24;;;;;;;40.58;30.52;;;7.90;99.90;;;;;;5090005;28;20075;-64
2022/12/30 08:04:50;;;;;;;50.97;37.05;;;8.00;99.90;;;;;;5068402;28;20100;-64
2022/12/30 08:07:17;;;;;;;37.97;28.70;;;8.10;99.90;;;;;;5075270;28;20592;-63
2022/12/30 08:09:43;;;;;;;45.08;32.72;;;8.20;99.90;;;;;;5089124;28;20046;-66
2022/12/30 08:12:09;;;;;;;48.92;33.83;;;8.30;99.90;;;;;;5084157;28;20021;-66
2022/12/30 08:14:35;;;;;;;40.25;31.20;;;8.30;99.90;;;;;;5066717;28;20097;-63
2022/12/30 08:17:01;;;;;;;39.13;30.48;;;8.40;99.90;;;;;;5085649;28;20107;-64
2022/12/30 08:19:28;;;;;;;40.28;31.58;;;8.50;99.90;;;;;;5069270;28;20474;-63
2022/12/30 08:22:21;;;;;;;41.33;31.45;;;8.60;99.90;;;;;;5064608;28;20051;-62
2022/12/30 08:24:48;;;;;;;45.90;33.08;;;8.80;99.90;;;;;;5062034;28;20480;-63
2022/12/30 08:27:14;;;;;;;48.20;34.95;;;9.10;99.90;;;;;;5087490;28;20032;-66
2022/12/30 08:29:40;;;;;;;40.00;30.88;;;9.50;99.90;;;;;;5064629;28;20475;-62
2022/12/30 08:32:06;;;;;;;39.17;28.55;;;10.00;99.90;;;;;;5083157;28;20058;-66
2022/12/30 08:34:31;;;;;;;37.13;29.63;;;10.20;99.90;;;;;;5092035;28;20493;-65
2022/12/30 08:36:57;;;;;;;33.67;27.50;;;10.80;99.90;;;;;;5091697;28;20394;-64
2022/12/30 08:39:23;;;;;;;36.58;28.30;;;11.50;99.90;;;;;;5082743;28;20055;-70
2022/12/30 08:41:49;;;;;;;32.15;25.55;;;11.60;99.90;;;;;;5088205;28;20107;-65
2022/12/30 08:44:15;;;;;;;31.48;24.52;;;11.60;99.90;;;;;;5095454;28;20059;-70
2022/12/30 08:46:41;;;;;;;39.45;28.95;;;11.80;99.90;;;;;;5091945;28;20470;-69
2022/12/30 08:49:09;;;;;;;35.15;26.85;;;12.70;99.90;;;;;;5074175;28;20052;-66
2022/12/30 08:52:30;;;;;;;41.13;31.80;;;12.90;99.90;;;;;;5082759;28;20028;-66
2022/12/30 08:55:18;;;;;;;48.08;38.25;;;12.70;99.90;;;;;;5084672;28;20059;-66
2022/12/30 08:57:46;;;;;;;43.58;34.88;;;12.80;99.90;;;;;;5089451;28;20123;-68
2022/12/30 09:00:12;;;;;;;54.90;42.53;;;13.40;99.90;;;;;;5091762;28;20447;-63
2022/12/30 09:02:38;;;;;;;44.08;36.15;;;13.80;99.90;;;;;;5094933;28;20028;-68
2022/12/30 09:05:04;;;;;;;46.85;38.00;;;13.80;99.90;;;;;;5088719;28;20485;-69
2022/12/30 09:07:29;;;;;;;46.65;37.90;;;13.80;99.90;;;;;;5066626;28;20036;-66
2022/12/30 09:09:55;;;;;;;57.80;43.30;;;13.80;99.90;;;;;;5088587;28;20424;-64
2022/12/30 09:12:21;;;;;;;53.75;43.35;;;13.80;99.90;;;;;;5067391;28;20043;-69
2022/12/30 09:14:47;;;;;;;52.33;41.47;;;13.70;99.90;;;;;;5091174;28;20024;-65
2022/12/30 09:17:12;;;;;;;51.88;42.13;;;13.70;99.90;;;;;;5092944;28;20032;-65
2022/12/30 09:19:38;;;;;;;54.75;42.72;;;13.80;99.90;;;;;;5088301;28;20026;-65
2022/12/30 09:22:04;;;;;;;60.53;45.50;;;13.80;99.90;;;;;;5085855;28;20032;-66
2022/12/30 09:24:30;;;;;;;53.05;42.88;;;13.80;99.90;;;;;;5090243;28;20103;-64
2022/12/30 09:27:01;;;;;;;50.15;40.80;;;13.80;99.90;;;;;;5063086;28;20182;-65
2022/12/30 09:29:28;;;;;;;51.50;42.65;;;13.90;99.90;;;;;;5085184;28;20451;-63
2022/12/30 09:31:54;;;;;;;48.97;41.70;;;14.10;99.90;;;;;;5071945;28;20107;-63
2022/12/30 09:34:20;;;;;;;60.53;48.90;;;14.70;99.90;;;;;;5069272;28;20106;-64
2022/12/30 09:36:46;;;;;;;48.00;41.80;;;15.20;99.90;;;;;;5084593;28;20016;-62
2022/12/30 09:39:13;;;;;;;54.10;44.80;;;15.70;99.90;;;;;;5079269;28;20028;-66
2022/12/30 09:45:09;;;;;;;63.58;52.35;;;16.70;96.60;;;;;;5076489;28;20062;-67
2022/12/30 09:47:43;;;;;;;63.08;51.67;;;17.20;79.20;;;;;;5078839;28;20070;-67
2022/12/30 09:50:14;;;;;;;56.08;48.72;;;17.60;83.10;;;;;;5072488;28;20020;-67
2022/12/30 09:53:05;;;;;;;55.05;47.20;;;18.10;79.90;;;;;;5068065;28;20087;-64
2022/12/30 09:55:47;;;;;;;52.05;45.10;;;18.50;75.30;;;;;;5069900;28;20047;-67
2022/12/30 09:58:26;;;;;;;43.35;35.63;;;19.10;65.10;;;;;;5090647;28;20070;-62
2022/12/30 10:00:53;;;;;;;36.45;32.28;;;19.60;59.70;;;;;;5070903;28;20025;-65
2022/12/30 10:03:25;;;;;;;33.53;29.58;;;19.80;58.50;;;;;;5089956;28;20012;-64
2022/12/30 10:06:37;;;;;;;28.35;25.27;;;19.80;54.60;;;;;;5087509;28;20045;-70
2022/12/30 10:09:49;;;;;;;25.40;22.80;;;19.70;51.50;;;;;;4972060;28;20873;-64
2022/12/30 10:12:36;;;;;;;24.20;21.58;;;19.50;53.60;;;;;;4902629;29;20036;-64
2022/12/30 10:15:17;;;;;;;19.98;17.73;;;19.40;53.50;;;;;;5004998;28;20100;-64
2022/12/30 10:17:55;;;;;;;20.63;18.50;;;19.40;53.50;;;;;;5053565;28;20039;-63
2022/12/30 10:20:23;;;;;;;19.23;17.10;;;19.40;51.90;;;;;;5074676;28;20100;-65
2022/12/30 10:23:00;;;;;;;20.05;15.38;;;19.60;54.10;;;;;;5092496;28;20428;-64
2022/12/30 10:25:43;;;;;;;17.63;15.50;;;19.70;51.60;;;;;;5091525;28;20487;-66
2022/12/30 10:28:13;;;;;;;17.63;15.30;;;19.60;51.00;;;;;;5093649;28;20020;-63
2022/12/30 10:30:45;;;;;;;15.23;13.63;;;19.50;51.50;;;;;;5092579;28;20111;-63
2022/12/30 10:33:22;;;;;;;20.17;16.67;;;19.30;53.30;;;;;;5092784;28;20028;-64
2022/12/30 10:35:53;;;;;;;16.38;14.68;;;19.30;51.70;;;;;;5076275;28;20017;-67
2022/12/30 10:38:25;;;;;;;16.05;14.35;;;19.10;53.40;;;;;;5075745;28;20027;-65
2022/12/30 10:41:07;;;;;;;15.30;13.70;;;19.10;56.00;;;;;;5094310;28;20032;-64
2022/12/30 10:43:58;;;;;;;16.92;15.20;;;19.00;53.60;;;;;;5094620;28;20035;-65
2022/12/30 10:46:23;;;;;;;15.48;13.88;;;18.70;53.60;;;;;;5093479;28;20062;-66
2022/12/30 10:49:00;;;;;;;14.52;12.98;;;18.60;54.70;;;;;;5094650;28;20020;-63
2022/12/30 10:51:27;;;;;;;21.85;17.60;;;18.60;53.70;;;;;;5094745;28;20032;-64
2022/12/30 10:53:54;;;;;;;22.73;18.40;;;18.50;51.90;;;;;;5094919;28;20027;-64
2022/12/30 10:56:29;;;;;;;20.77;17.25;;;18.30;54.60;;;;;;5094867;28;20031;-64
2022/12/30 10:59:02;;;;;;;27.83;23.42;;;18.20;55.60;;;;;;5075256;28;20052;-65
2022/12/30 11:01:33;;;;;;;22.05;19.60;;;18.20;53.80;;;;;;5094590;28;20035;-63
2022/12/30 11:04:00;;;;;;;23.83;21.05;;;18.10;55.20;;;;;;5094579;28;20024;-67
2022/12/30 11:06:57;;;;;;;24.65;21.65;;;18.00;55.20;;;;;;5094559;28;20024;-64
2022/12/30 11:09:23;;;;;;;26.90;23.25;;;18.00;58.00;;;;;;5094389;28;20036;-63
2022/12/30 11:14:43;;;;;;;28.48;23.10;;;18.10;57.00;;;;;;5093846;28;20495;-63
2022/12/30 11:17:14;;;;;;;24.60;21.95;;;18.10;54.80;;;;;;5091505;28;20055;-63
2022/12/30 11:19:48;;;;;;;26.00;21.88;;;18.10;56.90;;;;;;5091212;28;20024;-63
2022/12/30 11:22:13;;;;;;;23.77;20.95;;;18.20;54.30;;;;;;5093601;28;20105;-63
2022/12/30 11:25:04;;;;;;;19.13;16.83;;;18.20;57.80;;;;;;5093731;28;20055;-63
2022/12/30 11:27:47;;;;;;;20.38;18.02;;;18.30;53.40;;;;;;5092400;28;20032;-66
2022/12/30 11:30:25;;;;;;;19.08;17.10;;;18.20;54.80;;;;;;5093708;28;20020;-62
2022/12/30 11:32:53;;;;;;;16.98;15.18;;;18.20;55.60;;;;;;5093378;28;20028;-63
2022/12/30 11:35:51;;;;;;;16.85;14.38;;;18.20;56.50;;;;;;5093416;28;20027;-66
2022/12/30 11:38:38;;;;;;;16.02;13.30;;;18.20;58.30;;;;;;5039023;28;20173;-62
2022/12/30 11:41:19;;;;;;;14.95;12.88;;;18.10;58.80;;;;;;5092157;28;20054;-63
2022/12/30 11:43:58;;;;;;;22.95;15.57;;;18.20;57.70;;;;;;5092299;28;20451;-63
2022/12/30 11:46:39;;;;;;;23.63;17.00;;;18.10;59.00;;;;;;5093634;28;20359;-66
2022/12/30 11:49:26;;;;;;;19.60;15.27;;;17.90;57.90;;;;;;5093413;28;20049;-63
2022/12/30 11:51:53;;;;;;;19.35;14.70;;;17.80;54.80;;;;;;5093768;28;20513;-62
2022/12/30 11:54:29;;;;;;;19.88;16.38;;;17.70;68.60;;;;;;5093722;28;20070;-64
2022/12/30 11:56:59;;;;;;;21.70;17.75;;;17.70;62.90;;;;;;5093865;28;20428;-63
2022/12/30 11:59:31;;;;;;;19.88;15.63;;;17.60;59.60;;;;;;5076062;28;20040;-63
2022/12/30 12:02:02;;;;;;;18.38;15.05;;;17.50;71.30;;;;;;5093527;28;20036;-63
2022/12/30 12:04:37;;;;;;;19.88;15.82;;;17.60;75.00;;;;;;5093948;28;20119;-66
2022/12/30 12:07:05;;;;;;;22.55;18.00;;;17.60;65.20;;;;;;5075655;28;20016;-67
2022/12/30 12:09:38;;;;;;;28.48;20.70;;;17.50;71.90;;;;;;5093618;28;20518;-62
2022/12/30 12:12:12;;;;;;;22.60;17.42;;;17.40;75.90;;;;;;5093632;28;20025;-63
2022/12/30 12:15:02;;;;;;;28.10;21.42;;;17.20;94.40;;;;;;5093985;28;20051;-66
2022/12/30 12:17:57;;;;;;;44.33;30.33;;;17.20;84.40;;;;;;5093472;28;20043;-64
2022/12/30 12:20:41;;;;;;;73.32;46.13;;;17.10;76.60;;;;;;5093704;28;20028;-66
2022/12/30 12:23:34;;;;;;;56.63;38.88;;;17.00;61.00;;;;;;5093549;28;20031;-65
2022/12/30 12:26:19;;;;;;;57.83;41.90;;;17.00;94.00;;;;;;5093508;28;20034;-67
2022/12/30 12:28:50;;;;;;;54.25;39.00;;;17.00;99.90;;;;;;5096770;28;20077;-66
2022/12/30 12:31:46;;;;;;;55.10;40.15;;;16.90;99.90;;;;;;5097315;28;20028;-63
2022/12/30 12:34:20;;;;;;;52.53;42.33;;;16.90;99.90;;;;;;5097731;28;20460;-64
2022/12/30 12:37:04;;;;;;;65.38;50.72;;;16.90;99.90;;;;;;5097744;28;20371;-64
2022/12/30 12:40:00;;;;;;;61.58;47.65;;;16.80;99.90;;;;;;5097523;28;20031;-68
2022/12/30 12:42:45;;;;;;;69.90;54.60;;;16.90;99.90;;;;;;5097546;28;20081;-67
2022/12/30 12:45:40;;;;;;;81.22;62.00;;;16.90;99.90;;;;;;5097263;28;20073;-63
2022/12/30 12:48:30;;;;;;;80.78;59.50;;;17.00;99.90;;;;;;5060918;28;20116;-66
2022/12/30 12:50:59;;;;;;;76.78;61.35;;;17.20;99.90;;;;;;5097159;28;20024;-67
2022/12/30 12:53:33;;;;;;;70.63;57.35;;;17.40;99.90;;;;;;5097274;28;20030;-61
2022/12/30 12:56:05;;;;;;;71.03;56.95;;;17.70;99.90;;;;;;5097389;28;20059;-61
2022/12/30 12:58:45;;;;;;;65.22;52.42;;;18.00;99.90;;;;;;5097352;28;20048;-63
2022/12/30 13:01:52;;;;;;;52.88;45.20;;;18.20;99.90;;;;;;5097005;28;20028;-65
2022/12/30 13:04:50;;;;;;;42.85;38.05;;;18.30;63.80;;;;;;5097162;28;20020;-62
2022/12/30 13:07:49;;;;;;;36.38;31.27;;;18.40;67.20;;;;;;5096954;28;20031;-66
2022/12/30 13:10:43;;;;;;;34.97;29.88;;;18.40;60.30;;;;;;5096840;28;20032;-67
2022/12/30 13:13:23;;;;;;;36.55;30.83;;;18.30;58.00;;;;;;5078506;28;20025;-67
2022/12/30 13:16:02;;;;;;;28.55;23.67;;;18.30;68.30;;;;;;5075412;28;20115;-65
2022/12/30 13:18:30;;;;;;;24.55;21.48;;;18.20;56.80;;;;;;5093696;28;20024;-63
2022/12/30 13:21:00;;;;;;;24.80;20.73;;;18.10;56.90;;;;;;5095437;28;20099;-62
2022/12/30 13:23:29;;;;;;;22.25;19.20;;;18.10;56.80;;;;;;5093099;28;20398;-64
2022/12/30 13:25:59;;;;;;;23.25;20.42;;;18.10;56.30;;;;;;5095378;28;20039;-65
2022/12/30 13:28:27;;;;;;;23.38;19.52;;;18.10;60.70;;;;;;5092820;28;20276;-65
2022/12/30 13:31:35;;;;;;;29.40;24.67;;;18.10;58.20;;;;;;5094972;28;20078;-63
2022/12/30 13:34:12;;;;;;;32.60;28.67;;;18.00;60.80;;;;;;5091803;28;20032;-62
2022/12/30 13:36:56;;;;;;;36.60;30.80;;;17.90;58.40;;;;;;5094662;28;20024;-65
2022/12/30 13:39:52;;;;;;;31.15;27.83;;;17.80;58.70;;;;;;5074552;28;20028;-65
2022/12/30 13:42:33;;;;;;;34.85;30.58;;;17.80;57.30;;;;;;5073377;28;20039;-66
2022/12/30 13:44:59;;;;;;;56.38;44.17;;;17.80;56.00;;;;;;5096332;28;20024;-62
2022/12/30 13:47:42;;;;;;;117.72;89.65;;;17.80;65.30;;;;;;5096450;28;20040;-65
2022/12/30 13:50:19;;;;;;;118.53;88.60;;;17.60;77.60;;;;;;5096241;28;20481;-64
2022/12/30 13:52:48;;;;;;;113.53;90.72;;;17.20;97.00;;;;;;5096245;28;20534;-63